Time;durP1;ratioP1;P1;durP2;ratioP2;P2;SDS_P1;SDS_P2;PMS_P1;PMS_P2;Temp;Humidity;BMP_temperature;BMP_pressure;BME280_temperature;BME280_humidity;BME280_pressure;Samples;Min_cycle;Max_cycle;Signal;HPM_P1;HPM_P2
2022/04/04 00:01:17;;;;;;;2.87;2.20;;;2.20;99.90;;;;;;4970238;28;20955;-50
2022/04/04 00:03:44;;;;;;;2.77;2.57;;;2.10;99.90;;;;;;4973360;28;20482;-51
2022/04/04 00:06:11;;;;;;;3.80;2.67;;;2.10;99.90;;;;;;4969879;28;20469;-51
2022/04/04 00:08:38;;;;;;;4.63;2.33;;;2.10;99.90;;;;;;4968039;28;20549;-51
2022/04/04 00:11:04;;;;;;;3.17;2.47;;;2.10;99.90;;;;;;4967748;28;20916;-51
2022/04/04 00:13:31;;;;;;;2.33;2.13;;;2.10;99.90;;;;;;4966002;28;20548;-50
2022/04/04 00:15:57;;;;;;;5.70;2.50;;;2.10;99.90;;;;;;4965509;28;20624;-51
2022/04/04 00:18:25;;;;;;;2.33;2.13;;;2.20;99.90;;;;;;4964703;28;20469;-50
2022/04/04 00:20:52;;;;;;;2.50;2.30;;;2.20;99.90;;;;;;4966379;28;20572;-50
2022/04/04 00:23:19;;;;;;;4.50;2.53;;;2.20;99.90;;;;;;4965482;28;20457;-51
2022/04/04 00:25:47;;;;;;;4.20;2.67;;;2.20;99.90;;;;;;4967852;28;20580;-50
2022/04/04 00:28:14;;;;;;;2.20;2.10;;;2.20;99.90;;;;;;4968314;28;21050;-51
2022/04/04 00:30:42;;;;;;;2.90;2.70;;;2.20;99.90;;;;;;4967566;28;20516;-51
2022/04/04 00:33:08;;;;;;;2.37;2.20;;;2.20;99.90;;;;;;4967772;28;20556;-50
2022/04/04 00:35:36;;;;;;;2.80;2.50;;;2.20;99.90;;;;;;4965716;28;20568;-50
2022/04/04 00:38:04;;;;;;;3.03;2.47;;;2.20;99.90;;;;;;4966650;28;20544;-50
2022/04/04 00:40:31;;;;;;;2.60;2.30;;;2.20;99.90;;;;;;4968382;28;20557;-51
2022/04/04 00:42:58;;;;;;;4.30;2.37;;;2.20;99.90;;;;;;4968256;28;20598;-51
2022/04/04 00:45:25;;;;;;;2.50;2.40;;;2.20;99.90;;;;;;4967003;28;20503;-50
2022/04/04 00:47:51;;;;;;;3.30;2.40;;;2.20;99.90;;;;;;4967843;28;20561;-50
2022/04/04 00:50:18;;;;;;;2.60;2.40;;;2.10;99.90;;;;;;4967823;28;20465;-50
2022/04/04 00:52:47;;;;;;;4.87;2.80;;;2.20;99.90;;;;;;4965907;28;20469;-50
2022/04/04 00:55:14;;;;;;;2.60;2.40;;;2.10;99.90;;;;;;4965043;28;20592;-50
2022/04/04 00:57:42;;;;;;;2.83;2.53;;;2.10;99.90;;;;;;4965584;28;20573;-50
2022/04/04 01:00:11;;;;;;;2.70;2.60;;;2.00;99.90;;;;;;4971431;28;20473;-50
2022/04/04 01:02:38;;;;;;;2.57;2.47;;;2.00;99.90;;;;;;4972413;28;21149;-50
2022/04/04 01:05:06;;;;;;;3.17;2.90;;;2.00;99.90;;;;;;4964144;28;21605;-50
2022/04/04 01:07:32;;;;;;;2.30;2.20;;;1.90;99.90;;;;;;4968725;28;20492;-51
2022/04/04 01:10:01;;;;;;;5.53;2.70;;;1.90;99.90;;;;;;4966434;28;20995;-50
2022/04/04 01:12:27;;;;;;;3.83;2.97;;;1.90;99.90;;;;;;4970665;28;20454;-51
2022/04/04 01:14:54;;;;;;;3.10;2.80;;;1.80;99.90;;;;;;4965772;28;20564;-50
2022/04/04 01:17:24;;;;;;;3.87;2.87;;;1.80;99.90;;;;;;4969741;28;22119;-51
2022/04/04 01:19:50;;;;;;;3.30;3.10;;;1.70;99.90;;;;;;4970804;28;20465;-50
2022/04/04 01:22:17;;;;;;;5.50;3.10;;;1.70;99.90;;;;;;4965479;28;20851;-50
2022/04/04 01:24:45;;;;;;;2.80;2.60;;;1.70;99.90;;;;;;4966389;28;20565;-50
2022/04/04 01:27:13;;;;;;;3.00;2.90;;;1.70;99.90;;;;;;4965240;28;20903;-50
2022/04/04 01:29:40;;;;;;;3.17;2.63;;;1.70;99.90;;;;;;4964434;28;20915;-50
2022/04/04 01:32:08;;;;;;;5.03;3.30;;;1.70;99.90;;;;;;4972314;28;20476;-51
2022/04/04 01:34:35;;;;;;;5.23;2.53;;;1.70;99.90;;;;;;4965399;28;20562;-51
2022/04/04 01:37:02;;;;;;;3.47;3.17;;;1.60;99.90;;;;;;4969010;28;20457;-50
2022/04/04 01:39:28;;;;;;;3.10;2.90;;;1.60;99.90;;;;;;4970923;28;21123;-51
2022/04/04 01:41:56;;;;;;;2.77;2.67;;;1.70;99.90;;;;;;4966479;28;20503;-51
2022/04/04 01:44:23;;;;;;;3.30;3.03;;;1.60;99.90;;;;;;4968626;28;20598;-51
2022/04/04 01:46:49;;;;;;;3.73;3.43;;;1.60;99.90;;;;;;4967101;28;20569;-50
2022/04/04 01:49:16;;;;;;;3.40;3.10;;;1.60;99.90;;;;;;4965009;28;20548;-51
2022/04/04 01:51:42;;;;;;;5.10;3.10;;;1.60;99.90;;;;;;4966909;28;20548;-50
2022/04/04 01:54:09;;;;;;;4.00;2.90;;;1.60;99.90;;;;;;4968737;28;21130;-50
2022/04/04 01:56:36;;;;;;;3.30;3.10;;;1.60;99.90;;;;;;4966070;28;20461;-50
2022/04/04 01:59:05;;;;;;;2.97;2.83;;;1.60;99.90;;;;;;4968502;28;20553;-51
2022/04/04 02:01:34;;;;;;;4.20;3.67;;;1.70;99.90;;;;;;4969391;28;20477;-51
2022/04/04 02:04:01;;;;;;;6.57;3.23;;;1.70;99.90;;;;;;4965684;28;20464;-50
2022/04/04 02:06:28;;;;;;;3.53;3.23;;;1.60;99.90;;;;;;4970883;28;20489;-51
2022/04/04 02:08:55;;;;;;;3.27;3.03;;;1.60;99.90;;;;;;4971165;28;20496;-50
2022/04/04 02:11:23;;;;;;;3.80;3.33;;;1.60;99.90;;;;;;4975481;28;20528;-50
2022/04/04 02:13:49;;;;;;;3.30;3.10;;;1.60;99.90;;;;;;4975485;28;20891;-50
2022/04/04 02:16:17;;;;;;;2.80;2.70;;;1.60;99.90;;;;;;4974111;28;20537;-50
2022/04/04 02:18:44;;;;;;;3.77;2.80;;;1.60;99.90;;;;;;4974871;28;20514;-51
2022/04/04 02:21:11;;;;;;;4.90;3.27;;;1.60;99.90;;;;;;4975431;28;20913;-50
2022/04/04 02:23:38;;;;;;;3.30;3.10;;;1.60;99.90;;;;;;4975316;28;20481;-50
2022/04/04 02:26:05;;;;;;;3.50;3.30;;;1.60;99.90;;;;;;4974153;28;20495;-50
2022/04/04 02:28:31;;;;;;;3.97;3.67;;;1.50;99.90;;;;;;4974195;28;20560;-50
2022/04/04 02:30:59;;;;;;;4.63;3.50;;;1.50;99.90;;;;;;4973656;28;20557;-51
2022/04/04 02:33:27;;;;;;;3.90;3.30;;;1.50;99.90;;;;;;4970474;28;20478;-51
2022/04/04 02:35:54;;;;;;;3.97;3.57;;;1.40;99.90;;;;;;4974232;28;21347;-50
2022/04/04 02:38:24;;;;;;;4.13;3.73;;;1.40;99.90;;;;;;4971883;28;20508;-51
2022/04/04 02:40:51;;;;;;;4.23;3.53;;;1.50;99.90;;;;;;4974096;28;20461;-51
2022/04/04 02:43:18;;;;;;;3.40;3.10;;;1.50;99.90;;;;;;4972866;28;20557;-50
2022/04/04 02:45:45;;;;;;;3.47;3.37;;;1.50;99.90;;;;;;4972712;28;20584;-51
2022/04/04 02:48:12;;;;;;;3.90;3.57;;;1.40;99.90;;;;;;4973913;28;20489;-51
2022/04/04 02:50:39;;;;;;;4.03;3.73;;;1.50;99.90;;;;;;4974624;28;20513;-51
2022/04/04 02:53:06;;;;;;;4.07;3.73;;;1.40;99.90;;;;;;4978011;28;20524;-50
2022/04/04 02:58:17;;;;;;;3.90;3.70;;;1.40;99.90;;;;;;4968336;28;20491;-50
2022/04/04 03:00:44;;;;;;;4.40;4.10;;;1.40;99.90;;;;;;4970181;28;20544;-50
2022/04/04 03:03:11;;;;;;;6.60;3.70;;;1.40;99.90;;;;;;4970607;28;20461;-50
2022/04/04 03:05:38;;;;;;;3.93;3.50;;;1.40;99.80;;;;;;4968464;28;20564;-50
2022/04/04 03:08:06;;;;;;;4.30;3.97;;;1.40;96.30;;;;;;4969504;28;20460;-51
2022/04/04 03:10:33;;;;;;;4.07;3.77;;;1.40;93.50;;;;;;4969780;28;20496;-51
2022/04/04 03:13:02;;;;;;;4.27;4.07;;;1.40;98.30;;;;;;4968065;28;20470;-50
2022/04/04 03:15:29;;;;;;;3.97;3.57;;;1.30;97.00;;;;;;4968448;28;20528;-51
2022/04/04 03:17:57;;;;;;;4.60;3.90;;;1.40;95.90;;;;;;4968504;28;20536;-51
2022/04/04 03:20:25;;;;;;;4.33;4.00;;;1.40;94.70;;;;;;4968557;28;20556;-50
2022/04/04 03:22:54;;;;;;;3.87;3.63;;;1.40;95.70;;;;;;4968157;28;20565;-51
2022/04/04 03:25:22;;;;;;;4.43;4.13;;;1.40;97.80;;;;;;4968920;28;20489;-50
2022/04/04 03:27:50;;;;;;;4.30;4.00;;;1.40;95.30;;;;;;4967438;28;21737;-50
2022/04/04 03:30:20;;;;;;;8.30;5.63;;;1.40;97.70;;;;;;4969626;28;20461;-50
2022/04/04 03:32:49;;;;;;;3.53;3.33;;;1.40;97.50;;;;;;4969267;28;20898;-50
2022/04/04 03:35:16;;;;;;;4.70;4.40;;;1.40;96.60;;;;;;4969515;28;20481;-51
2022/04/04 03:37:44;;;;;;;4.90;4.50;;;1.40;92.50;;;;;;4968923;28;20550;-51
2022/04/04 03:40:13;;;;;;;6.70;4.53;;;1.40;94.30;;;;;;4967286;28;20826;-51
2022/04/04 03:42:42;;;;;;;5.77;5.13;;;1.40;91.50;;;;;;4967574;28;20951;-50
2022/04/04 03:45:11;;;;;;;5.13;4.63;;;1.40;95.70;;;;;;4966641;28;20584;-51
2022/04/04 03:47:38;;;;;;;5.13;4.73;;;1.40;95.90;;;;;;4967682;28;22516;-51
2022/04/04 03:50:06;;;;;;;4.60;4.20;;;1.40;92.80;;;;;;4967543;28;20504;-50
2022/04/04 03:52:33;;;;;;;4.60;4.27;;;1.40;94.50;;;;;;4968266;28;20952;-51
2022/04/04 03:54:59;;;;;;;4.80;4.50;;;1.40;94.50;;;;;;4967697;28;20565;-50
2022/04/04 03:57:26;;;;;;;4.77;4.37;;;1.40;96.10;;;;;;4966728;28;20553;-51
2022/04/04 03:59:54;;;;;;;4.83;4.53;;;1.50;96.60;;;;;;4966645;28;20580;-51
2022/04/04 04:02:21;;;;;;;4.30;4.00;;;1.40;99.70;;;;;;4966896;28;20585;-50
2022/04/04 04:04:48;;;;;;;5.87;4.57;;;1.40;97.90;;;;;;4967563;28;20580;-50
2022/04/04 04:07:16;;;;;;;4.37;3.97;;;1.40;95.30;;;;;;4968320;28;20617;-50
2022/04/04 04:09:43;;;;;;;4.47;4.13;;;1.50;92.70;;;;;;4968344;28;21958;-50
2022/04/04 04:12:11;;;;;;;4.53;4.23;;;1.40;98.80;;;;;;4967974;28;20457;-51
2022/04/04 04:14:37;;;;;;;4.30;4.00;;;1.40;97.90;;;;;;4966462;23;20495;-52
2022/04/04 04:17:06;;;;;;;4.83;4.33;;;1.40;96.70;;;;;;4953922;28;20501;-52
2022/04/04 04:22:17;;;;;;;4.17;3.97;;;1.40;91.80;;;;;;4953763;28;21066;-53
2022/04/04 04:24:44;;;;;;;4.83;4.53;;;1.40;93.30;;;;;;4954144;28;20855;-52
2022/04/04 04:27:10;;;;;;;6.40;4.33;;;1.50;90.40;;;;;;4954300;29;20486;-53
2022/04/04 04:29:37;;;;;;;4.60;4.20;;;1.60;78.70;;;;;;4955021;29;20875;-52
2022/04/04 04:32:07;;;;;;;4.57;4.17;;;1.70;99.90;;;;;;4950419;28;22245;-51
2022/04/04 04:34:34;;;;;;;4.37;4.07;;;1.70;99.90;;;;;;4950014;28;20583;-52
2022/04/04 04:37:00;;;;;;;4.37;3.90;;;1.70;99.90;;;;;;4953294;28;21003;-51
2022/04/04 04:39:27;;;;;;;4.47;4.17;;;1.60;99.90;;;;;;4949326;28;20910;-52
2022/04/04 04:41:55;;;;;;;4.37;4.07;;;1.70;99.90;;;;;;4954618;28;21061;-52
2022/04/04 04:44:21;;;;;;;5.33;4.83;;;1.70;99.90;;;;;;4952670;29;20488;-54
2022/04/04 04:46:48;;;;;;;7.00;4.80;;;1.70;99.90;;;;;;4949885;28;20514;-52
2022/04/04 04:49:17;;;;;;;5.00;4.60;;;1.70;99.90;;;;;;4952288;28;20474;-52
2022/04/04 04:51:44;;;;;;;10.03;5.33;;;1.70;99.90;;;;;;4953465;28;20498;-52
2022/04/04 04:54:11;;;;;;;5.37;4.70;;;1.70;99.90;;;;;;4951326;28;20493;-52
2022/04/04 04:56:37;;;;;;;5.53;5.03;;;1.70;99.90;;;;;;4953456;29;20688;-52
2022/04/04 04:59:04;;;;;;;6.10;4.97;;;1.70;99.90;;;;;;4952024;28;20892;-52
2022/04/04 05:01:30;;;;;;;8.33;4.30;;;1.70;99.90;;;;;;4956252;28;20494;-51
2022/04/04 05:03:57;;;;;;;6.47;4.70;;;1.70;99.90;;;;;;4948400;28;20564;-50
2022/04/04 05:06:25;;;;;;;5.53;5.00;;;1.70;99.90;;;;;;4949565;28;20573;-51
2022/04/04 05:08:52;;;;;;;6.50;5.77;;;1.70;99.90;;;;;;4948186;28;20955;-52
2022/04/04 05:11:18;;;;;;;6.10;5.00;;;1.60;99.90;;;;;;4952079;28;20984;-52
2022/04/04 05:13:45;;;;;;;5.20;4.80;;;1.70;99.90;;;;;;4952896;29;20543;-52
2022/04/04 05:16:14;;;;;;;5.90;5.07;;;1.70;99.90;;;;;;4950215;28;20984;-50
2022/04/04 05:18:42;;;;;;;8.47;5.53;;;1.70;99.90;;;;;;4950849;29;21036;-51
2022/04/04 05:21:09;;;;;;;6.13;4.63;;;1.80;99.90;;;;;;4949280;28;20474;-51
2022/04/04 05:23:37;;;;;;;5.37;5.00;;;1.80;99.90;;;;;;4948328;28;20561;-51
2022/04/04 05:26:04;;;;;;;4.60;4.20;;;1.90;99.90;;;;;;4949258;28;20999;-50
2022/04/04 05:28:31;;;;;;;5.50;4.80;;;1.90;99.90;;;;;;4952799;28;20509;-52
2022/04/04 05:30:58;;;;;;;4.90;4.57;;;1.90;99.90;;;;;;4949224;28;20466;-50
2022/04/04 05:33:25;;;;;;;6.20;5.70;;;2.00;99.90;;;;;;4952642;28;20514;-51
2022/04/04 05:35:52;;;;;;;4.47;4.17;;;2.10;99.90;;;;;;4953511;29;20465;-50
2022/04/04 05:38:20;;;;;;;4.47;4.17;;;2.10;99.90;;;;;;4953731;28;20477;-50
2022/04/04 05:40:48;;;;;;;10.73;4.80;;;2.20;99.90;;;;;;4953013;29;20459;-52
2022/04/04 05:43:15;;;;;;;5.87;4.90;;;2.20;99.90;;;;;;4953779;28;20503;-51
2022/04/04 05:45:41;;;;;;;10.90;5.40;;;2.20;99.90;;;;;;4953975;29;21070;-51
2022/04/04 05:48:08;;;;;;;6.60;6.00;;;2.20;99.90;;;;;;4956954;28;20490;-50
2022/04/04 05:50:35;;;;;;;5.50;5.10;;;2.30;99.90;;;;;;4957189;29;20561;-50
2022/04/04 05:53:02;;;;;;;5.27;4.87;;;2.30;99.90;;;;;;4957349;29;20446;-51
2022/04/04 05:55:29;;;;;;;5.70;5.20;;;2.50;99.90;;;;;;4957115;28;20625;-50
2022/04/04 05:57:57;;;;;;;5.90;5.40;;;2.50;99.90;;;;;;4960280;28;20460;-50
2022/04/04 06:00:24;;;;;;;5.00;4.70;;;2.60;99.90;;;;;;4956045;29;20478;-51
2022/04/04 06:02:51;;;;;;;5.83;5.20;;;2.70;99.90;;;;;;4952023;28;20561;-51
2022/04/04 06:05:17;;;;;;;5.63;4.90;;;2.80;99.90;;;;;;4953657;28;20462;-50
2022/04/04 06:07:44;;;;;;;4.90;4.60;;;2.90;99.90;;;;;;4947907;28;20569;-51
2022/04/04 06:10:13;;;;;;;6.17;5.67;;;2.90;99.90;;;;;;4950885;28;20979;-50
2022/04/04 06:12:40;;;;;;;8.73;5.40;;;3.00;99.90;;;;;;4949119;28;20556;-50
2022/04/04 06:15:10;;;;;;;6.53;5.43;;;3.00;99.90;;;;;;4949601;28;20518;-51
2022/04/04 06:17:38;;;;;;;7.30;5.50;;;3.10;99.90;;;;;;4949782;28;20458;-50
2022/04/04 06:20:06;;;;;;;7.13;5.70;;;3.10;99.90;;;;;;4952457;28;21042;-51
2022/04/04 06:22:35;;;;;;;8.50;6.43;;;3.20;99.90;;;;;;4952098;28;20470;-50
2022/04/04 06:25:02;;;;;;;6.63;6.13;;;3.20;99.90;;;;;;4951975;28;20490;-51
2022/04/04 06:27:28;;;;;;;9.30;6.23;;;3.30;99.90;;;;;;4954262;28;20573;-50
2022/04/04 06:29:55;;;;;;;7.73;6.30;;;3.30;99.90;;;;;;4956790;29;20485;-50
2022/04/04 06:32:24;;;;;;;12.17;6.80;;;3.30;99.90;;;;;;4959332;29;20893;-50
2022/04/04 06:34:50;;;;;;;7.80;7.00;;;3.40;99.90;;;;;;4962832;28;20462;-51
2022/04/04 06:37:17;;;;;;;6.77;6.17;;;3.50;99.90;;;;;;4961363;28;20499;-50
2022/04/04 06:39:44;;;;;;;7.60;6.90;;;3.50;99.90;;;;;;4957100;28;20505;-51
2022/04/04 06:42:11;;;;;;;8.23;6.23;;;3.50;99.90;;;;;;4954584;29;20930;-51
2022/04/04 06:44:37;;;;;;;20.80;8.17;;;3.50;99.90;;;;;;4951443;28;20656;-51
2022/04/04 06:47:05;;;;;;;11.63;8.50;;;3.60;99.90;;;;;;4954203;28;21024;-51
2022/04/04 06:49:33;;;;;;;7.93;7.23;;;3.60;99.90;;;;;;4953195;28;20467;-51
2022/04/04 06:51:59;;;;;;;7.67;6.47;;;3.60;99.90;;;;;;4954770;28;20504;-51
2022/04/04 06:54:27;;;;;;;6.73;6.23;;;3.70;99.90;;;;;;4949394;28;20583;-52
2022/04/04 06:56:53;;;;;;;11.13;7.90;;;3.80;99.90;;;;;;4953162;28;20462;-50
2022/04/04 06:59:20;;;;;;;9.30;7.03;;;3.80;99.90;;;;;;4954552;28;20549;-51
2022/04/04 07:01:47;;;;;;;7.87;7.10;;;3.90;99.90;;;;;;4950551;28;20554;-51
2022/04/04 07:04:14;;;;;;;8.10;7.40;;;3.90;99.90;;;;;;4949672;28;20581;-51
2022/04/04 07:06:43;;;;;;;7.53;6.93;;;3.90;20.80;;;;;;4949392;28;20485;-50
2022/04/04 07:09:09;;;;;;;13.40;7.30;;;3.90;83.80;;;;;;4952709;28;20466;-51
2022/04/04 07:11:36;;;;;;;8.07;7.37;;;3.90;24.90;;;;;;4952739;28;20514;-51
2022/04/04 07:14:03;;;;;;;8.70;7.80;;;4.00;27.60;;;;;;4955330;28;20497;-50
2022/04/04 07:16:30;;;;;;;12.93;8.27;;;4.10;28.70;;;;;;4952470;28;20469;-51
2022/04/04 07:18:57;;;;;;;7.47;6.83;;;4.20;29.60;;;;;;4945410;28;20458;-50
2022/04/04 07:21:23;;;;;;;8.60;7.90;;;4.20;36.60;;;;;;4950701;28;20926;-51
2022/04/04 07:23:51;;;;;;;9.80;8.50;;;4.30;41.80;;;;;;4950889;28;20493;-51
2022/04/04 07:26:21;;;;;;;11.80;8.57;;;4.30;44.90;;;;;;4954787;28;20918;-51
2022/04/04 07:28:48;;;;;;;11.27;8.50;;;4.40;45.70;;;;;;4950554;28;20568;-51
2022/04/04 07:31:15;;;;;;;8.67;7.83;;;4.50;48.20;;;;;;4950375;28;21259;-51
2022/04/04 07:33:42;;;;;;;8.73;8.13;;;4.60;47.00;;;;;;4951235;28;20514;-51
2022/04/04 07:36:11;;;;;;;8.97;8.07;;;4.70;55.60;;;;;;4950344;28;20561;-51
2022/04/04 07:38:38;;;;;;;11.07;8.40;;;4.70;64.10;;;;;;4949884;28;20493;-51
2022/04/04 07:41:06;;;;;;;11.97;9.20;;;4.70;67.70;;;;;;4954343;28;20450;-51
2022/04/04 07:43:32;;;;;;;9.10;8.30;;;4.90;70.90;;;;;;4950304;28;20537;-51
2022/04/04 07:45:59;;;;;;;10.77;8.60;;;5.00;76.90;;;;;;4950590;28;20513;-51
2022/04/04 07:48:26;;;;;;;13.70;9.07;;;5.10;79.90;;;;;;4945895;28;20474;-51
2022/04/04 07:50:52;;;;;;;9.40;8.50;;;5.20;79.10;;;;;;4951369;28;20579;-50
2022/04/04 07:53:19;;;;;;;9.23;8.40;;;5.20;90.70;;;;;;4955555;28;20501;-51
2022/04/04 07:55:45;;;;;;;9.90;8.73;;;5.20;93.40;;;;;;4952076;28;20543;-51
2022/04/04 07:58:16;;;;;;;9.73;8.80;;;5.20;94.60;;;;;;4951253;28;20545;-51
2022/04/04 08:00:43;;;;;;;9.97;9.17;;;5.20;95.70;;;;;;4950740;28;21086;-51
2022/04/04 08:03:09;;;;;;;9.60;8.90;;;5.30;95.60;;;;;;4949475;28;21011;-50
2022/04/04 08:05:36;;;;;;;9.90;9.00;;;5.40;94.90;;;;;;4954263;29;20453;-51
2022/04/04 08:08:03;;;;;;;17.50;9.20;;;5.50;97.40;;;;;;4953232;28;20490;-51
2022/04/04 08:10:29;;;;;;;13.30;8.87;;;5.40;99.90;;;;;;4952818;28;20478;-51
2022/04/04 08:12:56;;;;;;;13.00;8.53;;;5.40;99.90;;;;;;4951000;28;21027;-51
2022/04/04 08:15:24;;;;;;;9.43;8.50;;;5.50;99.90;;;;;;4953429;28;20490;-52
2022/04/04 08:17:50;;;;;;;10.30;8.27;;;5.60;99.90;;;;;;4953193;28;20485;-52
2022/04/04 08:20:17;;;;;;;20.50;8.40;;;5.60;99.90;;;;;;4945624;28;20557;-51
2022/04/04 08:22:45;;;;;;;9.33;8.53;;;5.80;99.90;;;;;;4951905;28;20597;-51
2022/04/04 08:25:13;;;;;;;15.10;9.37;;;5.80;99.90;;;;;;4952371;28;21054;-50
2022/04/04 08:27:41;;;;;;;16.80;9.03;;;5.70;99.90;;;;;;4951043;28;20482;-52
2022/04/04 08:30:10;;;;;;;13.30;8.73;;;5.80;99.90;;;;;;4953823;28;20513;-51
2022/04/04 08:32:39;;;;;;;14.93;9.67;;;5.70;99.90;;;;;;4950229;28;20574;-51
2022/04/04 08:35:06;;;;;;;11.80;8.93;;;5.70;99.90;;;;;;4949394;28;20574;-50
2022/04/04 08:37:34;;;;;;;9.07;8.17;;;5.70;99.90;;;;;;4950669;28;20490;-51
2022/04/04 08:40:00;;;;;;;9.33;8.33;;;5.80;99.90;;;;;;4947783;28;20538;-51
2022/04/04 08:42:27;;;;;;;17.83;9.60;;;6.00;99.90;;;;;;4950034;28;20506;-50
2022/04/04 08:44:56;;;;;;;9.70;8.80;;;6.20;99.90;;;;;;4950223;28;20486;-51
2022/04/04 08:47:22;;;;;;;10.47;9.43;;;6.40;99.90;;;;;;4946226;28;20577;-51
2022/04/04 08:49:52;;;;;;;11.83;10.07;;;6.40;99.90;;;;;;4950249;28;20462;-51
2022/04/04 08:52:19;;;;;;;15.73;8.93;;;6.20;99.90;;;;;;4950596;28;20984;-50
2022/04/04 08:54:46;;;;;;;11.80;9.77;;;6.40;99.90;;;;;;4951626;28;20919;-51
2022/04/04 08:57:12;;;;;;;9.53;8.60;;;6.60;99.90;;;;;;4949784;28;20950;-51
2022/04/04 08:59:39;;;;;;;10.23;8.83;;;6.70;99.90;;;;;;4949355;28;20594;-51
2022/04/04 09:02:06;;;;;;;9.40;8.53;;;6.90;99.90;;;;;;4948367;28;20462;-51
2022/04/04 09:04:33;;;;;;;14.33;9.00;;;6.70;99.90;;;;;;4948290;28;20564;-50
2022/04/04 09:07:06;;;;;;;10.70;9.40;;;6.80;99.90;;;;;;4949598;28;20488;-50
2022/04/04 09:09:39;;;;;;;12.00;8.97;;;6.80;99.90;;;;;;4949668;28;20501;-50
2022/04/04 09:12:07;;;;;;;15.50;8.90;;;7.00;99.90;;;;;;4949880;28;20553;-51
2022/04/04 09:14:37;;;;;;;9.50;8.60;;;7.10;99.90;;;;;;4949797;28;20525;-51
2022/04/04 09:17:06;;;;;;;8.37;7.57;;;7.20;99.90;;;;;;4951637;29;20521;-51
2022/04/04 09:19:33;;;;;;;8.90;8.00;;;7.20;99.90;;;;;;4953988;28;20470;-51
2022/04/04 09:22:09;;;;;;;8.27;7.67;;;7.40;99.90;;;;;;4953140;28;20493;-51
2022/04/04 09:24:49;;;;;;;12.20;9.00;;;7.30;99.90;;;;;;4956559;28;21062;-52
2022/04/04 09:27:24;;;;;;;9.23;8.07;;;7.20;99.90;;;;;;4955897;29;20545;-50
2022/04/04 09:29:53;;;;;;;10.23;8.20;;;7.30;99.90;;;;;;4954061;28;20557;-50
2022/04/04 09:32:20;;;;;;;10.00;7.93;;;7.80;99.90;;;;;;4951132;28;20466;-51
2022/04/04 09:34:54;;;;;;;14.93;8.10;;;7.80;99.90;;;;;;4955906;28;20512;-51
2022/04/04 09:37:24;;;;;;;10.13;7.87;;;8.10;99.90;;;;;;4955351;28;20470;-50
2022/04/04 09:39:51;;;;;;;14.07;7.07;;;8.40;99.90;;;;;;4955178;28;20466;-51
2022/04/04 09:42:19;;;;;;;13.03;8.67;;;8.50;99.90;;;;;;4968745;28;20477;-50
2022/04/04 09:45:00;;;;;;;8.40;7.60;;;8.10;99.90;;;;;;4951158;28;20564;-50
2022/04/04 09:47:50;;;;;;;8.97;8.17;;;8.20;99.90;;;;;;4951150;28;20513;-52
2022/04/04 09:50:31;;;;;;;12.70;8.43;;;9.20;99.90;;;;;;4952417;29;20477;-51
2022/04/04 09:53:00;;;;;;;9.70;8.57;;;9.10;99.90;;;;;;4957511;29;20442;-51
2022/04/04 09:55:31;;;;;;;25.33;9.57;;;8.60;99.90;;;;;;4958022;28;20457;-50
2022/04/04 09:57:59;;;;;;;19.43;9.63;;;8.00;99.90;;;;;;4952782;28;20457;-51
2022/04/04 10:00:26;;;;;;;10.40;8.10;;;7.70;99.90;;;;;;4954104;28;20510;-51
2022/04/04 10:02:56;;;;;;;9.60;8.77;;;7.40;99.90;;;;;;4949258;28;20464;-51
2022/04/04 10:05:24;;;;;;;11.20;8.77;;;7.20;99.90;;;;;;4955332;28;20854;-50
2022/04/04 10:07:55;;;;;;;18.10;10.40;;;7.10;99.90;;;;;;4951204;28;20570;-50
2022/04/04 10:10:27;;;;;;;13.60;10.00;;;7.00;99.90;;;;;;4955315;28;21087;-50
2022/04/04 10:12:54;;;;;;;14.30;7.10;;;7.10;99.90;;;;;;4955366;28;20885;-50
2022/04/04 10:15:22;;;;;;;10.67;9.10;;;6.90;99.90;;;;;;4956840;23;21011;-50
2022/04/04 10:17:50;;;;;;;15.20;9.93;;;7.00;99.90;;;;;;4950143;28;20482;-50
2022/04/04 10:20:17;;;;;;;10.70;9.60;;;7.30;99.90;;;;;;4957875;28;20490;-50
2022/04/04 10:22:45;;;;;;;15.13;9.60;;;7.30;99.90;;;;;;4951139;28;20901;-50
2022/04/04 10:25:14;;;;;;;12.83;10.47;;;7.40;99.90;;;;;;4942806;28;20535;-51
2022/04/04 10:27:46;;;;;;;25.67;10.63;;;7.50;99.90;;;;;;4934655;29;21038;-50
2022/04/04 10:30:16;;;;;;;14.50;10.40;;;7.70;99.90;;;;;;4924535;29;20484;-50
2022/04/04 10:32:53;;;;;;;11.47;9.57;;;7.80;99.90;;;;;;4932778;29;20469;-49
2022/04/04 10:35:22;;;;;;;10.33;9.33;;;7.90;99.90;;;;;;4928746;29;20565;-50
2022/04/04 10:37:49;;;;;;;9.43;8.50;;;7.80;99.90;;;;;;4937318;29;20538;-50
2022/04/04 10:40:21;;;;;;;10.07;8.23;;;7.70;99.90;;;;;;4935809;29;20546;-50
2022/04/04 10:43:02;;;;;;;9.77;7.33;;;7.60;99.90;;;;;;4935297;29;20539;-51
2022/04/04 10:45:29;;;;;;;12.53;7.87;;;7.70;99.90;;;;;;4930947;29;20999;-49
2022/04/04 10:48:06;;;;;;;9.40;7.80;;;7.60;99.90;;;;;;4929632;29;20487;-50
2022/04/04 10:50:33;;;;;;;10.87;8.17;;;7.60;99.90;;;;;;4922184;29;20460;-51
2022/04/04 10:53:01;;;;;;;11.17;7.90;;;7.50;99.90;;;;;;4936752;29;20455;-50
2022/04/04 10:55:43;;;;;;;8.80;8.00;;;7.50;99.90;;;;;;4935176;29;20471;-50
2022/04/04 10:58:19;;;;;;;11.27;6.73;;;7.40;99.90;;;;;;4935394;29;20898;-50
2022/04/04 11:01:07;;;;;;;7.53;6.83;;;7.30;99.90;;;;;;4924433;29;21000;-49
2022/04/04 11:03:35;;;;;;;7.80;7.03;;;7.40;99.90;;;;;;4934564;29;20534;-49
2022/04/04 11:09:11;;;;;;;17.47;7.37;;;7.60;99.90;;;;;;4934758;29;20638;-50
2022/04/04 11:11:47;;;;;;;7.90;7.07;;;7.60;99.90;;;;;;4935364;29;20985;-51
2022/04/04 11:14:16;;;;;;;17.47;7.23;;;7.40;99.90;;;;;;4927260;29;20870;-51
2022/04/04 11:17:17;;;;;;;12.17;7.20;;;7.40;99.90;;;;;;4925407;29;20522;-50
2022/04/04 11:19:45;;;;;;;13.73;6.50;;;7.40;99.90;;;;;;4931662;29;20585;-50
2022/04/04 11:22:14;;;;;;;14.10;6.73;;;7.40;99.90;;;;;;4931035;29;20472;-50
2022/04/04 11:24:41;;;;;;;7.77;6.40;;;7.50;99.90;;;;;;4931585;29;20498;-49
2022/04/04 11:27:08;;;;;;;15.83;6.20;;;7.40;99.90;;;;;;4921358;29;20550;-50
2022/04/04 11:29:39;;;;;;;14.73;7.20;;;7.50;99.90;;;;;;4935029;29;20534;-50
2022/04/04 11:32:08;;;;;;;12.00;6.93;;;7.60;99.90;;;;;;4931872;29;20977;-50
2022/04/04 11:34:37;;;;;;;6.10;5.50;;;7.50;99.90;;;;;;4931296;29;20546;-49
2022/04/04 11:37:05;;;;;;;11.10;7.00;;;7.40;99.90;;;;;;4930912;29;20455;-50
2022/04/04 11:39:32;;;;;;;14.13;6.50;;;7.10;99.90;;;;;;4930116;29;20454;-49
2022/04/04 11:42:00;;;;;;;19.57;7.13;;;6.80;99.90;;;;;;4941777;29;20494;-49
2022/04/04 11:44:27;;;;;;;6.03;5.63;;;6.80;99.90;;;;;;4935943;29;20499;-50
2022/04/04 11:47:07;;;;;;;24.20;6.40;;;6.80;99.90;;;;;;4923803;29;20567;-50
2022/04/04 11:49:34;;;;;;;17.13;5.40;;;6.80;99.90;;;;;;4927550;29;20482;-50
2022/04/04 11:52:04;;;;;;;9.83;5.97;;;6.80;99.90;;;;;;4936313;29;20471;-51
2022/04/04 11:54:40;;;;;;;11.93;6.47;;;6.60;99.90;;;;;;4930209;29;20870;-50
2022/04/04 11:57:07;;;;;;;17.30;6.77;;;6.60;99.90;;;;;;4926535;29;20482;-50
2022/04/04 11:59:35;;;;;;;8.97;6.27;;;6.60;99.90;;;;;;4925127;29;20809;-50
2022/04/04 12:02:03;;;;;;;7.70;6.13;;;6.40;99.90;;;;;;4928608;29;20471;-50
2022/04/04 12:04:31;;;;;;;10.97;6.73;;;6.20;99.90;;;;;;4931939;29;20491;-51
2022/04/04 12:06:58;;;;;;;9.53;6.20;;;5.70;69.90;;;;;;4929498;29;20591;-50
2022/04/04 12:09:29;;;;;;;7.00;6.30;;;5.50;29.20;;;;;;4930144;29;20579;-50
2022/04/04 12:12:05;;;;;;;8.80;5.40;;;5.10;99.90;;;;;;4926635;29;20487;-49
2022/04/04 12:14:33;;;;;;;5.60;5.10;;;4.90;99.90;;;;;;4930034;29;20497;-50
2022/04/04 12:17:00;;;;;;;6.00;5.53;;;4.70;99.90;;;;;;4929728;29;20460;-50
2022/04/04 12:19:28;;;;;;;8.37;5.60;;;4.70;99.90;;;;;;4933839;29;20467;-50
2022/04/04 12:21:57;;;;;;;14.00;6.50;;;4.50;99.90;;;;;;4935641;29;20980;-50
2022/04/04 12:27:10;;;;;;;8.03;5.97;;;4.40;99.90;;;;;;4925852;29;20470;-51
2022/04/04 12:29:45;;;;;;;11.63;4.70;;;4.30;99.90;;;;;;4932916;29;20479;-50
2022/04/04 12:32:16;;;;;;;15.03;6.63;;;4.20;99.50;;;;;;4931771;29;20989;-50
2022/04/04 12:34:59;;;;;;;19.77;5.60;;;4.10;99.90;;;;;;4931707;29;20471;-50
2022/04/04 12:37:38;;;;;;;7.03;5.50;;;3.90;95.80;;;;;;4933343;29;20495;-50
2022/04/04 12:40:16;;;;;;;14.10;5.13;;;3.90;75.40;;;;;;4930905;29;20530;-51
2022/04/04 12:42:43;;;;;;;7.33;4.90;;;3.80;59.30;;;;;;4930612;29;20538;-50
2022/04/04 12:45:11;;;;;;;5.00;4.60;;;3.70;42.10;;;;;;4922132;29;20472;-51
2022/04/04 12:47:53;;;;;;;8.70;5.40;;;3.60;27.10;;;;;;4927439;29;20882;-50
2022/04/04 12:50:21;;;;;;;13.73;5.57;;;3.50;74.00;;;;;;4921824;29;20514;-50
2022/04/04 12:52:59;;;;;;;8.60;5.57;;;3.40;99.90;;;;;;4924792;29;20487;-48
2022/04/04 12:55:27;;;;;;;8.10;5.57;;;3.30;99.90;;;;;;4929084;29;20503;-48
2022/04/04 12:57:54;;;;;;;12.13;5.60;;;3.30;99.90;;;;;;4929172;29;20458;-49
2022/04/04 13:00:28;;;;;;;7.10;5.20;;;3.30;99.90;;;;;;4926625;29;20486;-49
2022/04/04 13:02:56;;;;;;;12.53;6.50;;;3.20;99.90;;;;;;4931830;29;20486;-50
2022/04/04 13:05:25;;;;;;;12.03;5.53;;;3.10;99.90;;;;;;4922535;29;20487;-50
2022/04/04 13:07:53;;;;;;;6.70;5.00;;;3.10;99.90;;;;;;4922829;29;20468;-50
2022/04/04 13:10:24;;;;;;;9.67;6.70;;;3.10;99.90;;;;;;4924011;29;20514;-49